createdAt,value
2022-12-23T00:00:11.957Z,1.27
2022-12-23T00:02:39.355Z,1.17
2022-12-23T00:05:06.699Z,1.02
2022-12-23T00:07:33.907Z,1.30
2022-12-23T00:10:01.159Z,1.63
2022-12-23T00:12:47.129Z,1.38
2022-12-23T00:15:16.873Z,1.10
2022-12-23T00:17:44.071Z,0.73
2022-12-23T00:20:11.355Z,1.10
2022-12-23T00:22:57.463Z,1.70
2022-12-23T00:25:40.325Z,0.93
2022-12-23T00:28:07.918Z,1.08
2022-12-23T00:30:35.128Z,1.20
2022-12-23T00:33:02.490Z,1.10
2022-12-23T00:35:30.115Z,1.02
2022-12-23T00:37:57.335Z,0.88
2022-12-23T00:40:43.300Z,1.50
2022-12-23T00:43:10.542Z,1.00
2022-12-23T00:45:37.781Z,0.90
2022-12-23T00:48:24.026Z,1.60
2022-12-23T00:50:51.373Z,1.20
2022-12-23T00:53:18.528Z,1.25
2022-12-23T00:55:47.769Z,1.00
2022-12-23T00:58:14.945Z,0.88
2022-12-23T01:01:01.051Z,1.20
2022-12-23T01:03:47.329Z,1.08
2022-12-23T01:06:14.570Z,1.40
2022-12-23T01:08:41.782Z,1.20
2022-12-23T01:11:09.039Z,1.25
2022-12-23T01:13:36.213Z,1.10
2022-12-23T01:16:03.479Z,1.27
2022-12-23T01:18:30.671Z,1.23
2022-12-23T01:20:58.142Z,1.20
2022-12-23T01:23:25.364Z,1.27
2022-12-23T01:25:52.582Z,1.15
2022-12-23T01:28:19.873Z,1.23
2022-12-23T01:30:47.132Z,1.02
2022-12-23T01:33:14.291Z,0.98
2022-12-23T01:35:41.567Z,1.73
2022-12-23T01:38:08.780Z,1.10
2022-12-23T01:40:36.122Z,1.05
2022-12-23T01:43:03.369Z,0.80
2022-12-23T01:45:30.661Z,0.80
2022-12-23T01:47:57.920Z,0.60
2022-12-23T01:50:25.262Z,0.75
2022-12-23T01:52:52.564Z,0.85
2022-12-23T01:55:19.938Z,0.60
2022-12-23T01:57:47.839Z,0.90
2022-12-23T02:00:34.137Z,0.70
2022-12-23T02:03:20.323Z,0.80
2022-12-23T02:05:47.684Z,0.70
2022-12-23T02:08:33.715Z,0.60
2022-12-23T02:11:01.011Z,0.80
2022-12-23T02:13:28.199Z,0.82
2022-12-23T02:16:14.185Z,0.68
2022-12-23T02:18:41.467Z,0.70
2022-12-23T02:21:08.717Z,0.70
2022-12-23T02:23:35.985Z,0.50
2022-12-23T02:26:03.215Z,0.70
2022-12-23T02:28:30.463Z,0.50
2022-12-23T02:30:57.764Z,0.93
2022-12-23T02:33:25.126Z,0.70
2022-12-23T02:35:52.411Z,0.70
2022-12-23T02:38:19.598Z,0.40
2022-12-23T02:40:46.867Z,0.68
2022-12-23T02:43:14.146Z,0.77
2022-12-23T02:45:41.461Z,0.40
2022-12-23T02:48:08.739Z,0.60
2022-12-23T02:50:36.000Z,1.65
2022-12-23T02:53:03.271Z,0.65
2022-12-23T02:55:30.565Z,0.77
2022-12-23T02:57:57.778Z,0.70
2022-12-23T03:00:25.053Z,0.75
2022-12-23T03:02:52.497Z,0.70
2022-12-23T03:05:19.846Z,1.02
2022-12-23T03:07:47.017Z,0.75
2022-12-23T03:10:14.287Z,1.00
2022-12-23T03:12:41.459Z,2.15
2022-12-23T03:15:08.696Z,0.60
2022-12-23T03:17:35.905Z,1.08
2022-12-23T03:20:03.134Z,0.60
2022-12-23T03:22:30.339Z,0.93
2022-12-23T03:24:57.586Z,0.88
2022-12-23T03:27:24.750Z,0.85
2022-12-23T03:29:51.987Z,0.85
2022-12-23T03:32:19.185Z,0.82
2022-12-23T03:34:46.481Z,1.02
2022-12-23T03:37:13.669Z,1.20
2022-12-23T03:39:40.942Z,0.93
2022-12-23T03:42:08.192Z,0.98
2022-12-23T03:44:35.472Z,1.15
2022-12-23T03:47:02.647Z,0.80
2022-12-23T03:49:29.869Z,1.10
2022-12-23T03:51:57.051Z,1.10
2022-12-23T03:54:24.285Z,1.40
2022-12-23T03:56:51.465Z,1.30
2022-12-23T03:59:18.755Z,1.20
2022-12-23T04:01:46.097Z,1.35
2022-12-23T04:04:13.501Z,1.50
2022-12-23T04:06:40.730Z,1.20
2022-12-23T04:09:08.012Z,1.00
2022-12-23T04:11:35.288Z,1.45
2022-12-23T04:14:02.743Z,1.10
2022-12-23T04:16:30.099Z,0.75
2022-12-23T04:18:57.291Z,0.98
2022-12-23T04:21:24.516Z,0.68
2022-12-23T04:23:51.700Z,0.80
2022-12-23T04:26:18.924Z,0.77
2022-12-23T04:28:46.134Z,0.70
2022-12-23T04:31:13.469Z,0.60
2022-12-23T04:33:40.675Z,0.68
2022-12-23T04:36:07.936Z,0.52
2022-12-23T04:38:35.090Z,0.65
2022-12-23T04:41:02.279Z,0.88
2022-12-23T04:43:29.462Z,0.60
2022-12-23T04:45:56.724Z,0.70
2022-12-23T04:48:23.937Z,0.40
2022-12-23T04:50:51.168Z,0.60
2022-12-23T04:53:18.324Z,0.80
2022-12-23T04:55:45.540Z,0.50
2022-12-23T04:58:12.785Z,0.55
2022-12-23T05:00:40.285Z,0.45
2022-12-23T05:03:07.655Z,0.50
2022-12-23T05:05:35.091Z,0.50
2022-12-23T05:08:02.287Z,0.70
2022-12-23T05:10:29.576Z,0.40
2022-12-23T05:12:56.851Z,0.50
2022-12-23T05:15:24.136Z,0.75
2022-12-23T05:17:51.359Z,0.60
2022-12-23T05:20:18.622Z,0.77
2022-12-23T05:22:45.862Z,0.60
2022-12-23T05:25:13.147Z,0.50
2022-12-23T05:27:40.391Z,0.50
2022-12-23T05:30:07.718Z,0.52
2022-12-23T05:32:34.889Z,0.50
2022-12-23T05:35:02.167Z,0.57
2022-12-23T05:37:29.429Z,0.40
2022-12-23T05:39:56.659Z,0.47
2022-12-23T05:42:23.930Z,0.55
2022-12-23T05:44:51.190Z,0.60
2022-12-23T05:47:18.386Z,0.90
2022-12-23T05:49:45.709Z,0.63
2022-12-23T05:52:12.953Z,0.70
2022-12-23T05:54:40.317Z,0.88
2022-12-23T05:57:08.078Z,0.77
2022-12-23T05:59:35.362Z,0.80
2022-12-23T06:02:02.769Z,0.70
2022-12-23T06:04:30.117Z,0.95
2022-12-23T06:06:57.285Z,0.77
2022-12-23T06:09:24.530Z,0.70
2022-12-23T06:11:51.712Z,0.60
2022-12-23T06:14:21.463Z,0.80
2022-12-23T06:16:52.640Z,1.00
2022-12-23T06:19:19.941Z,0.90
2022-12-23T06:21:47.288Z,1.35
2022-12-23T06:24:14.665Z,1.40
2022-12-23T06:26:41.995Z,1.15
2022-12-23T06:29:09.167Z,1.33
2022-12-23T06:31:36.488Z,1.30
2022-12-23T06:34:03.778Z,1.30
2022-12-23T06:36:31.105Z,1.38
2022-12-23T06:38:58.260Z,1.58
2022-12-23T06:41:25.595Z,1.67
2022-12-23T06:43:54.564Z,1.92
2022-12-23T06:46:21.996Z,1.50
2022-12-23T06:48:49.199Z,2.00
2022-12-23T06:51:16.423Z,1.90
2022-12-23T06:53:43.767Z,3.10
2022-12-23T06:56:11.020Z,2.60
2022-12-23T06:58:38.375Z,1.77
2022-12-23T07:01:05.801Z,3.75
2022-12-23T07:03:33.195Z,2.92
2022-12-23T07:06:00.479Z,2.03
2022-12-23T07:08:27.654Z,2.55
2022-12-23T07:10:55.008Z,2.17
2022-12-23T07:13:22.159Z,2.67
2022-12-23T07:15:49.520Z,2.58
2022-12-23T07:18:16.747Z,2.75
2022-12-23T07:20:43.984Z,3.33
2022-12-23T07:23:11.186Z,3.17
2022-12-23T07:25:38.399Z,4.25
2022-12-23T07:28:05.663Z,3.22
2022-12-23T07:30:32.809Z,2.80
2022-12-23T07:33:00.129Z,2.97
2022-12-23T07:35:27.316Z,2.95
2022-12-23T07:37:55.512Z,2.42
2022-12-23T07:40:22.909Z,3.28
2022-12-23T07:42:50.094Z,2.28
2022-12-23T07:45:17.363Z,2.55
2022-12-23T07:47:44.654Z,2.53
2022-12-23T07:50:11.862Z,2.90
2022-12-23T07:52:39.081Z,3.08
2022-12-23T07:55:06.656Z,3.10
2022-12-23T07:57:37.902Z,2.92
2022-12-23T08:00:05.399Z,2.67
2022-12-23T08:02:39.625Z,2.97
2022-12-23T08:05:07.077Z,2.20
2022-12-23T08:07:34.238Z,2.53
2022-12-23T08:10:01.511Z,3.00
2022-12-23T08:12:28.728Z,2.20
2022-12-23T08:14:55.975Z,2.60
2022-12-23T08:17:23.376Z,2.75
2022-12-23T08:19:50.679Z,2.92
2022-12-23T08:22:17.987Z,2.30
2022-12-23T08:24:45.249Z,2.95
2022-12-23T08:27:12.465Z,2.65
2022-12-23T08:29:39.969Z,2.13
2022-12-23T08:32:07.211Z,2.17
2022-12-23T08:34:34.484Z,2.83
2022-12-23T08:37:01.689Z,2.35
2022-12-23T08:39:29.151Z,2.90
2022-12-23T08:41:56.334Z,2.30
2022-12-23T08:44:26.993Z,2.17
2022-12-23T08:46:54.276Z,2.35
2022-12-23T08:49:21.433Z,2.30
2022-12-23T08:51:48.654Z,2.80
2022-12-23T08:54:15.971Z,2.17
2022-12-23T08:56:43.283Z,2.10
2022-12-23T08:59:14.693Z,1.70
2022-12-23T09:01:45.843Z,1.55
2022-12-23T09:04:13.133Z,2.78
2022-12-23T09:06:43.455Z,1.50
2022-12-23T09:09:10.828Z,2.10
2022-12-23T09:11:38.176Z,0.88
2022-12-23T09:14:05.389Z,0.90
2022-12-23T09:16:32.878Z,0.90
2022-12-23T09:19:00.206Z,0.85
2022-12-23T09:21:27.466Z,1.10
2022-12-23T09:23:54.730Z,1.00
2022-12-23T09:26:22.031Z,0.65
2022-12-23T09:28:49.319Z,0.50
2022-12-23T09:31:16.601Z,0.63
2022-12-23T09:33:43.912Z,0.60
2022-12-23T09:36:11.159Z,0.50
2022-12-23T09:38:38.385Z,0.68
2022-12-23T09:41:05.550Z,0.40
2022-12-23T09:43:32.924Z,0.60
2022-12-23T09:46:00.311Z,0.63
2022-12-23T09:48:27.684Z,1.05
2022-12-23T09:50:54.910Z,0.60
2022-12-23T09:53:22.181Z,0.70
2022-12-23T09:55:49.985Z,0.60
2022-12-23T09:58:17.667Z,0.50
2022-12-23T10:00:45.067Z,0.68
2022-12-23T10:03:12.501Z,0.57
2022-12-23T10:05:39.983Z,0.60
2022-12-23T10:08:07.190Z,1.13
2022-12-23T10:10:34.386Z,0.77
2022-12-23T10:13:01.611Z,1.35
2022-12-23T10:15:28.834Z,0.70
2022-12-23T10:17:56.124Z,0.90
2022-12-23T10:20:23.669Z,1.40
2022-12-23T10:22:50.901Z,1.67
2022-12-23T10:25:18.210Z,1.35
2022-12-23T10:27:45.676Z,1.08
2022-12-23T10:30:34.312Z,1.20
2022-12-23T10:33:00.424Z,1.10
2022-12-23T10:35:27.622Z,1.15
2022-12-23T10:37:54.935Z,0.90
2022-12-23T10:40:22.112Z,1.45
2022-12-23T10:42:49.425Z,1.20
2022-12-23T10:45:16.612Z,0.90
2022-12-23T10:47:43.897Z,1.00
2022-12-23T10:50:11.166Z,1.40
2022-12-23T10:52:38.396Z,1.20
2022-12-23T10:55:05.573Z,1.05
2022-12-23T10:57:32.986Z,1.10
2022-12-23T11:00:00.194Z,1.90
2022-12-23T11:02:27.600Z,1.42
2022-12-23T11:04:55.004Z,1.73
2022-12-23T11:10:09.541Z,1.60
2022-12-23T11:12:40.513Z,2.58
2022-12-23T11:15:09.573Z,3.00
2022-12-23T11:17:36.831Z,3.17
2022-12-23T11:20:04.085Z,2.80
2022-12-23T11:22:31.295Z,2.33
2022-12-23T11:24:58.563Z,2.65
2022-12-23T11:27:25.764Z,2.60
2022-12-23T11:29:52.948Z,2.20
2022-12-23T11:32:20.168Z,1.55
2022-12-23T11:34:47.381Z,1.40
2022-12-23T11:37:15.306Z,1.25
2022-12-23T11:39:42.525Z,1.50
2022-12-23T11:42:09.695Z,1.75
2022-12-23T11:44:36.878Z,1.55
2022-12-23T11:47:04.173Z,1.17
2022-12-23T11:49:34.461Z,1.70
2022-12-23T11:52:01.985Z,1.20
2022-12-23T11:54:29.199Z,1.13
2022-12-23T11:56:56.546Z,1.90
2022-12-23T11:59:23.794Z,1.40
2022-12-23T12:01:51.109Z,1.73
2022-12-23T12:04:18.329Z,1.60
2022-12-23T12:06:49.648Z,1.70
2022-12-23T12:09:20.090Z,1.90
2022-12-23T12:11:47.328Z,1.52
2022-12-23T12:14:14.539Z,1.90
2022-12-23T12:16:41.827Z,1.75
2022-12-23T12:19:09.141Z,1.33
2022-12-23T12:21:36.296Z,1.83
2022-12-23T12:24:17.781Z,1.38
2022-12-23T12:26:47.106Z,1.45
2022-12-23T12:29:14.484Z,1.48
2022-12-23T12:31:41.681Z,1.58
2022-12-23T12:34:08.918Z,1.90
2022-12-23T12:36:36.253Z,1.73
2022-12-23T12:39:04.069Z,1.98
2022-12-23T12:41:31.329Z,1.80
2022-12-23T12:43:58.495Z,1.65
2022-12-23T12:46:25.853Z,1.98
2022-12-23T12:48:53.044Z,2.55
2022-12-23T12:51:20.347Z,2.63
2022-12-23T12:53:47.598Z,2.42
2022-12-23T12:56:15.435Z,1.95
2022-12-23T12:58:42.827Z,1.52
2022-12-23T13:01:10.187Z,1.70
2022-12-23T13:03:37.463Z,1.73
2022-12-23T13:06:04.625Z,1.65
2022-12-23T13:08:31.882Z,1.67
2022-12-23T13:10:59.104Z,2.65
2022-12-23T13:13:26.393Z,1.63
2022-12-23T13:15:53.595Z,1.70
2022-12-23T13:18:20.837Z,2.10
2022-12-23T13:20:48.036Z,1.58
2022-12-23T13:23:42.216Z,2.20
2022-12-23T13:26:02.648Z,1.92
2022-12-23T13:28:29.917Z,2.13
2022-12-23T13:30:57.132Z,1.73
2022-12-23T13:33:24.376Z,2.10
2022-12-23T13:35:51.624Z,3.53
2022-12-23T13:38:18.815Z,1.95
2022-12-23T13:40:46.079Z,1.98
2022-12-23T13:43:13.332Z,1.90
2022-12-23T13:45:40.592Z,1.60
2022-12-23T13:48:07.809Z,2.05
2022-12-23T13:50:35.362Z,1.83
2022-12-23T13:53:02.834Z,1.38
2022-12-23T13:55:30.048Z,2.03
2022-12-23T13:57:57.206Z,1.92
2022-12-23T14:00:27.477Z,1.92
2022-12-23T14:02:55.155Z,1.95
2022-12-23T14:05:22.427Z,2.58
2022-12-23T14:07:49.749Z,2.80
2022-12-23T14:10:16.942Z,1.67
2022-12-23T14:12:46.206Z,2.35
2022-12-23T14:15:13.405Z,2.22
2022-12-23T14:17:40.630Z,1.98
2022-12-23T14:20:07.985Z,2.92
2022-12-23T14:22:35.246Z,1.98
2022-12-23T14:25:02.495Z,1.40
2022-12-23T14:27:29.725Z,2.17
2022-12-23T14:30:01.529Z,1.75
2022-12-23T14:32:32.648Z,1.55
2022-12-23T14:34:59.900Z,1.95
2022-12-23T14:37:27.400Z,1.83
2022-12-23T14:39:54.635Z,2.35
2022-12-23T14:42:21.929Z,2.97
2022-12-23T14:44:50.312Z,1.65
2022-12-23T14:47:22.577Z,2.20
2022-12-23T14:49:50.082Z,2.85
2022-12-23T14:52:17.271Z,2.10
2022-12-23T14:55:05.990Z,2.50
2022-12-23T14:57:31.868Z,2.10
2022-12-23T14:59:59.132Z,4.55
2022-12-23T15:02:26.421Z,2.20
2022-12-23T15:04:53.823Z,2.80
2022-12-23T15:07:21.126Z,2.85
2022-12-23T15:09:48.499Z,2.75
2022-12-23T15:12:15.807Z,3.42
2022-12-23T15:14:43.071Z,2.80
2022-12-23T15:17:10.295Z,4.63
2022-12-23T15:19:37.514Z,2.97
2022-12-23T15:22:14.984Z,2.97
2022-12-23T15:24:47.027Z,2.60
2022-12-23T15:27:27.183Z,2.53
2022-12-23T15:29:55.515Z,3.72
2022-12-23T15:32:23.257Z,2.70
2022-12-23T15:34:50.564Z,3.83
2022-12-23T15:37:17.726Z,3.20
2022-12-23T15:39:45.153Z,2.33
2022-12-23T15:42:12.344Z,2.28
2022-12-23T15:44:40.012Z,2.30
2022-12-23T15:47:07.268Z,3.47
2022-12-23T15:49:34.502Z,2.15
2022-12-23T15:52:13.879Z,2.70
2022-12-23T15:54:47.154Z,1.85
2022-12-23T15:57:18.491Z,2.30
2022-12-23T15:59:45.753Z,2.20
2022-12-23T16:02:49.575Z,1.33
2022-12-23T16:05:03.302Z,1.75
2022-12-23T16:07:30.626Z,2.08
2022-12-23T16:09:57.790Z,2.00
2022-12-23T16:12:25.087Z,2.45
2022-12-23T16:14:52.366Z,2.30
2022-12-23T16:17:19.623Z,2.15
2022-12-23T16:19:46.912Z,1.67
2022-12-23T16:22:14.112Z,1.95
2022-12-23T16:24:41.331Z,2.22
2022-12-23T16:27:08.529Z,1.80
2022-12-23T16:29:35.864Z,2.67
2022-12-23T16:32:03.073Z,2.00
2022-12-23T16:34:30.416Z,2.72
2022-12-23T16:36:57.582Z,2.20
2022-12-23T16:39:24.869Z,2.13
2022-12-23T16:41:52.109Z,2.60
2022-12-23T16:44:19.966Z,2.53
2022-12-23T16:46:47.197Z,2.28
2022-12-23T16:49:14.436Z,2.10
2022-12-23T16:51:41.771Z,2.70
2022-12-23T16:54:09.017Z,3.75
2022-12-23T16:56:36.587Z,3.08
2022-12-23T16:59:03.958Z,2.85
2022-12-23T17:01:32.571Z,2.75
2022-12-23T17:03:59.928Z,3.05
2022-12-23T17:06:27.097Z,2.72
2022-12-23T17:08:54.435Z,2.88
2022-12-23T17:11:21.656Z,2.85
2022-12-23T17:13:48.905Z,2.58
2022-12-23T17:16:16.366Z,3.10
2022-12-23T17:18:43.594Z,3.08
2022-12-23T17:21:10.887Z,3.78
2022-12-23T17:23:38.131Z,2.90
2022-12-23T17:26:05.362Z,3.45
2022-12-23T17:28:32.625Z,3.50
2022-12-23T17:30:59.903Z,2.90
2022-12-23T17:33:27.163Z,3.85
2022-12-23T17:35:55.959Z,2.63
2022-12-23T17:38:23.193Z,2.72
2022-12-23T17:40:50.475Z,4.55
2022-12-23T17:43:17.679Z,4.00
2022-12-23T17:45:44.991Z,3.05
2022-12-23T17:48:18.025Z,4.50
2022-12-23T17:50:48.027Z,2.88
2022-12-23T17:53:15.189Z,5.20
2022-12-23T17:55:42.439Z,3.90
2022-12-23T17:58:09.685Z,4.55
2022-12-23T18:00:37.169Z,4.95
2022-12-23T18:03:05.137Z,4.82
2022-12-23T18:05:32.469Z,2.63
2022-12-23T18:07:59.649Z,3.78
2022-12-23T18:10:27.064Z,3.75
2022-12-23T18:12:54.360Z,4.15
2022-12-23T18:15:21.710Z,5.00
2022-12-23T18:17:48.888Z,5.38
2022-12-23T18:20:16.291Z,4.95
2022-12-23T18:22:43.579Z,4.30
2022-12-23T18:25:10.868Z,4.00
2022-12-23T18:27:38.131Z,3.35
2022-12-23T18:30:05.394Z,3.90
2022-12-23T18:32:33.035Z,3.45
2022-12-23T18:35:00.412Z,3.40
2022-12-23T18:37:27.638Z,3.35
2022-12-23T18:39:54.881Z,4.90
2022-12-23T18:42:22.124Z,4.13
2022-12-23T18:44:49.393Z,3.65
2022-12-23T18:47:16.633Z,4.00
2022-12-23T18:49:43.963Z,5.38
2022-12-23T18:52:14.906Z,3.92
2022-12-23T18:54:42.185Z,6.78
2022-12-23T18:57:09.549Z,2.83
2022-12-23T18:59:38.988Z,3.35
2022-12-23T19:02:06.329Z,4.10
2022-12-23T19:04:34.117Z,3.33
2022-12-23T19:07:01.358Z,3.78
2022-12-23T19:09:28.638Z,3.05
2022-12-23T19:11:55.862Z,4.45
2022-12-23T19:14:23.290Z,4.65
2022-12-23T19:16:52.382Z,3.83
2022-12-23T19:19:20.006Z,4.05
2022-12-23T19:21:47.223Z,4.07
2022-12-23T19:24:14.514Z,4.10
2022-12-23T19:26:41.878Z,7.95
2022-12-23T19:29:09.187Z,3.92
2022-12-23T19:31:36.358Z,4.82
2022-12-23T19:34:03.681Z,4.78
2022-12-23T19:36:31.293Z,6.40
2022-12-23T19:38:58.688Z,5.85
2022-12-23T19:41:25.992Z,6.28
2022-12-23T19:43:53.258Z,6.32
2022-12-23T19:46:20.506Z,5.28
2022-12-23T19:48:47.837Z,6.82
2022-12-23T19:51:15.010Z,5.25
2022-12-23T19:53:42.356Z,4.65
2022-12-23T19:56:09.683Z,5.10
2022-12-23T19:58:37.112Z,5.45
2022-12-23T20:01:04.330Z,4.45
2022-12-23T20:03:31.638Z,5.50
2022-12-23T20:05:58.950Z,4.43
2022-12-23T20:08:26.633Z,6.18
2022-12-23T20:10:53.965Z,4.50
2022-12-23T20:13:24.251Z,5.18
2022-12-23T20:15:51.602Z,5.85
2022-12-23T20:18:18.893Z,7.28
2022-12-23T20:20:46.178Z,5.57
2022-12-23T20:23:13.341Z,7.40
2022-12-23T20:25:40.591Z,5.13
2022-12-23T20:28:07.944Z,6.30
2022-12-23T20:30:35.173Z,5.32
2022-12-23T20:33:02.454Z,5.65
2022-12-23T20:35:29.735Z,4.50
2022-12-23T20:37:57.189Z,6.78
2022-12-23T20:40:24.545Z,7.95
2022-12-23T20:42:51.872Z,7.82
2022-12-23T20:45:20.894Z,6.35
2022-12-23T20:47:48.381Z,6.13
2022-12-23T20:50:15.618Z,8.10
2022-12-23T20:52:42.845Z,7.72
2022-12-23T20:55:10.104Z,8.15
2022-12-23T20:57:37.286Z,7.70
2022-12-23T21:00:04.693Z,7.25
2022-12-23T21:02:31.944Z,6.55
2022-12-23T21:04:59.228Z,9.57
2022-12-23T21:07:26.466Z,8.05
2022-12-23T21:09:53.740Z,6.72
2022-12-23T21:12:20.999Z,7.97
2022-12-23T21:14:48.503Z,6.10
2022-12-23T21:17:15.781Z,6.35
2022-12-23T21:19:43.031Z,4.68
2022-12-23T21:22:10.263Z,4.75
2022-12-23T21:24:37.522Z,7.20
2022-12-23T21:27:04.696Z,7.45
2022-12-23T21:29:32.004Z,5.47
2022-12-23T21:32:00.633Z,7.50
2022-12-23T21:34:27.909Z,4.85
2022-12-23T21:36:55.245Z,5.00
2022-12-23T21:39:22.684Z,5.82
2022-12-23T21:41:51.550Z,4.75
2022-12-23T21:44:19.060Z,5.10
2022-12-23T21:46:46.465Z,4.88
2022-12-23T21:49:13.765Z,5.03
2022-12-23T21:51:41.997Z,5.28
2022-12-23T21:54:09.559Z,5.88
2022-12-23T21:56:36.820Z,6.13
2022-12-23T21:59:04.139Z,6.05
2022-12-23T22:01:31.488Z,5.90
2022-12-23T22:03:58.841Z,4.65
2022-12-23T22:06:26.024Z,4.30
2022-12-23T22:08:53.336Z,4.68
2022-12-23T22:11:20.588Z,5.78
2022-12-23T22:13:47.883Z,5.18
2022-12-23T22:16:15.181Z,5.03
2022-12-23T22:18:42.421Z,5.07
2022-12-23T22:21:09.786Z,4.95
2022-12-23T22:23:37.075Z,5.53
2022-12-23T22:26:04.392Z,6.75
2022-12-23T22:28:31.938Z,7.15
2022-12-23T22:30:59.177Z,5.18
2022-12-23T22:33:26.369Z,5.50
2022-12-23T22:35:54.091Z,5.22
2022-12-23T22:38:21.294Z,6.28
2022-12-23T22:40:48.693Z,5.30
2022-12-23T22:43:15.906Z,5.93
2022-12-23T22:45:43.203Z,6.45
2022-12-23T22:48:10.540Z,5.43
2022-12-23T22:50:37.789Z,6.47
2022-12-23T22:53:05.106Z,5.93
2022-12-23T22:55:32.382Z,4.50
2022-12-23T22:57:59.568Z,9.35
2022-12-23T23:00:26.845Z,5.75
2022-12-23T23:02:54.449Z,5.07
2022-12-23T23:05:21.688Z,5.40
2022-12-23T23:07:48.881Z,5.55
2022-12-23T23:10:16.134Z,4.50
2022-12-23T23:12:44.516Z,5.32
2022-12-23T23:15:11.822Z,4.93
2022-12-23T23:17:39.296Z,5.80
2022-12-23T23:20:07.112Z,5.80
2022-12-23T23:22:34.417Z,6.70
2022-12-23T23:25:01.682Z,6.68
2022-12-23T23:27:28.910Z,5.05
2022-12-23T23:29:56.188Z,4.90
2022-12-23T23:32:23.453Z,5.90
2022-12-23T23:34:50.885Z,6.00
2022-12-23T23:37:18.194Z,6.15
2022-12-23T23:39:45.513Z,5.50
2022-12-23T23:42:12.776Z,5.78
2022-12-23T23:44:40.137Z,6.03
2022-12-23T23:47:07.667Z,5.32
2022-12-23T23:49:34.838Z,5.20
2022-12-23T23:52:02.096Z,7.05
2022-12-23T23:54:29.353Z,6.45
2022-12-23T23:56:56.586Z,6.45
2022-12-23T23:59:23.952Z,7.07
